UAL1887 KEWR-KBDL
Flight info
| Callsign | UAL1887 |
|---|---|
| Flight time | 0h 32m |
| Altitude | 15000 |
| Route | DPK DPK3 |
| Aircraft | B38M/M-SDE1FGHILORVWXY/HB1 |
Departure
| Time | 2026-04-20 19:41 |
|---|---|
| Airport | Newark Liberty International Airport (KEWR) |
Arrival
| Time | 2026-04-20 20:13 |
|---|---|
| Airport | Bradley International Airport (KBDL) |
| Time | Latitude | Longitude | Altitude | Speed | Heading |
|---|---|---|---|---|---|
| 2026-04-20 19:25 | 40.68443 | -74.18387 | 27 ft | 0 kts | 185° |
| 2026-04-20 19:31 | 40.68460 | -74.18386 | 26 ft | 4 kts | 177° |
| 2026-04-20 19:31 | 40.68485 | -74.18393 | 27 ft | 4 kts | 152° |
| 2026-04-20 19:32 | 40.68499 | -74.18406 | 28 ft | 4 kts | 130° |
| 2026-04-20 19:32 | 40.68512 | -74.18446 | 26 ft | 2 kts | 95° |
| 2026-04-20 19:32 | 40.68512 | -74.18449 | 26 ft | 0 kts | 95° |
| 2026-04-20 19:34 | 40.68511 | -74.18431 | 26 ft | 4 kts | 95° |
| 2026-04-20 19:34 | 40.68508 | -74.18385 | 26 ft | 7 kts | 95° |
| 2026-04-20 19:35 | 40.68503 | -74.18312 | 27 ft | 9 kts | 95° |
| 2026-04-20 19:35 | 40.68495 | -74.18217 | 25 ft | 12 kts | 103° |
| 2026-04-20 19:35 | 40.68449 | -74.18115 | 25 ft | 14 kts | 124° |
| 2026-04-20 19:35 | 40.68401 | -74.17989 | 25 ft | 17 kts | 115° |
| 2026-04-20 19:36 | 40.68349 | -74.17845 | 25 ft | 17 kts | 116° |
| 2026-04-20 19:36 | 40.68300 | -74.17713 | 24 ft | 16 kts | 116° |
| 2026-04-20 19:36 | 40.68236 | -74.17660 | 24 ft | 12 kts | 211° |
| 2026-04-20 19:36 | 40.68159 | -74.17711 | 24 ft | 14 kts | 206° |
| 2026-04-20 19:37 | 40.68075 | -74.17765 | 24 ft | 14 kts | 206° |
| 2026-04-20 19:37 | 40.67984 | -74.17823 | 24 ft | 15 kts | 206° |
| 2026-04-20 19:37 | 40.67890 | -74.17884 | 29 ft | 16 kts | 205° |
| 2026-04-20 19:37 | 40.67794 | -74.17943 | 25 ft | 16 kts | 205° |
| 2026-04-20 19:38 | 40.67694 | -74.18007 | 25 ft | 16 kts | 207° |
| 2026-04-20 19:38 | 40.67614 | -74.18045 | 26 ft | 7 kts | 173° |
| 2026-04-20 19:38 | 40.67610 | -74.18044 | 26 ft | 0 kts | 169° |
| 2026-04-20 19:39 | 40.67608 | -74.18043 | 26 ft | 1 kts | 164° |
| 2026-04-20 19:39 | 40.67592 | -74.18030 | 28 ft | 4 kts | 142° |
| 2026-04-20 19:39 | 40.67568 | -74.17993 | 29 ft | 7 kts | 119° |
| 2026-04-20 19:40 | 40.67569 | -74.17930 | 27 ft | 8 kts | 47° |
| 2026-04-20 19:40 | 40.67626 | -74.17891 | 26 ft | 14 kts | 26° |
| 2026-04-20 19:40 | 40.67890 | -74.17725 | 23 ft | 84 kts | 26° |
| 2026-04-20 19:40 | 40.68660 | -74.17229 | 29 ft | 160 kts | 27° |
| 2026-04-20 19:41 | 40.69760 | -74.16462 | 599 ft | 189 kts | 24° |
| 2026-04-20 19:41 | 40.70877 | -74.15718 | 1505 ft | 169 kts | 23° |
| 2026-04-20 19:41 | 40.71887 | -74.14845 | 2023 ft | 183 kts | 34° |
| 2026-04-20 19:41 | 40.72904 | -74.13670 | 2276 ft | 205 kts | 38° |
| 2026-04-20 19:42 | 40.73991 | -74.12367 | 2366 ft | 222 kts | 37° |
| 2026-04-20 19:42 | 40.75185 | -74.10938 | 2457 ft | 242 kts | 38° |
| 2026-04-20 19:42 | 40.76557 | -74.09547 | 3289 ft | 249 kts | 23° |
| 2026-04-20 19:42 | 40.78180 | -74.08979 | 4466 ft | 244 kts | 1° |
| 2026-04-20 19:43 | 40.79738 | -74.08830 | 5381 ft | 251 kts | 1° |
| 2026-04-20 19:43 | 40.81380 | -74.09137 | 6436 ft | 248 kts | 336° |
| 2026-04-20 19:43 | 40.82787 | -74.10435 | 7416 ft | 252 kts | 309° |
| 2026-04-20 19:43 | 40.83560 | -74.12482 | 8381 ft | 256 kts | 281° |
| 2026-04-20 19:44 | 40.83501 | -74.14833 | 9376 ft | 259 kts | 254° |
| 2026-04-20 19:44 | 40.82587 | -74.16893 | 10395 ft | 267 kts | 229° |
| 2026-04-20 19:44 | 40.80981 | -74.18317 | 10923 ft | 293 kts | 204° |
| 2026-04-20 19:44 | 40.78883 | -74.18774 | 11352 ft | 321 kts | 181° |
| 2026-04-20 19:45 | 40.76669 | -74.18071 | 11914 ft | 343 kts | 159° |
| 2026-04-20 19:45 | 40.74677 | -74.16224 | 12670 ft | 356 kts | 136° |
| 2026-04-20 19:45 | 40.73273 | -74.13487 | 13559 ft | 366 kts | 115° |
| 2026-04-20 19:45 | 40.72714 | -74.10190 | 14351 ft | 373 kts | 91° |
| 2026-04-20 19:46 | 40.72990 | -74.06792 | 14711 ft | 379 kts | 82° |
| 2026-04-20 19:46 | 40.73264 | -74.03326 | 14874 ft | 379 kts | 84° |
| 2026-04-20 19:46 | 40.73531 | -73.99824 | 14940 ft | 390 kts | 84° |
| 2026-04-20 19:46 | 40.73810 | -73.96191 | 14943 ft | 407 kts | 85° |
| 2026-04-20 19:47 | 40.74099 | -73.92458 | 14943 ft | 420 kts | 85° |
| 2026-04-20 19:47 | 40.74407 | -73.88587 | 14964 ft | 426 kts | 84° |
| 2026-04-20 19:47 | 40.74724 | -73.84690 | 14978 ft | 428 kts | 84° |
| 2026-04-20 19:47 | 40.75051 | -73.80760 | 14986 ft | 429 kts | 84° |
| 2026-04-20 19:48 | 40.75376 | -73.76877 | 14993 ft | 429 kts | 84° |
| 2026-04-20 19:48 | 40.75703 | -73.72954 | 15001 ft | 429 kts | 84° |
| 2026-04-20 19:48 | 40.76029 | -73.69029 | 14986 ft | 429 kts | 84° |
| 2026-04-20 19:48 | 40.76351 | -73.65152 | 14980 ft | 429 kts | 84° |
| 2026-04-20 19:49 | 40.76675 | -73.61236 | 14972 ft | 430 kts | 85° |
| 2026-04-20 19:49 | 40.76998 | -73.57297 | 14979 ft | 431 kts | 85° |
| 2026-04-20 19:49 | 40.77322 | -73.53357 | 14979 ft | 431 kts | 85° |
| 2026-04-20 19:49 | 40.77644 | -73.49403 | 14981 ft | 431 kts | 85° |
| 2026-04-20 19:50 | 40.77959 | -73.45517 | 14982 ft | 431 kts | 85° |
| 2026-04-20 19:50 | 40.78277 | -73.41583 | 14990 ft | 431 kts | 85° |
| 2026-04-20 19:50 | 40.78597 | -73.37620 | 14981 ft | 432 kts | 85° |
| 2026-04-20 19:50 | 40.79043 | -73.33745 | 14953 ft | 432 kts | 75° |
| 2026-04-20 19:51 | 40.80256 | -73.30128 | 14971 ft | 431 kts | 56° |
| 2026-04-20 19:51 | 40.82193 | -73.27109 | 14979 ft | 430 kts | 41° |
| 2026-04-20 19:51 | 40.84325 | -73.24518 | 14971 ft | 431 kts | 40° |
| 2026-04-20 19:51 | 40.86554 | -73.21861 | 14958 ft | 431 kts | 40° |
| 2026-04-20 19:52 | 40.88797 | -73.19220 | 14966 ft | 431 kts | 40° |
| 2026-04-20 19:52 | 40.91018 | -73.16622 | 14970 ft | 431 kts | 40° |
| 2026-04-20 19:52 | 40.93271 | -73.13994 | 14966 ft | 431 kts | 40° |
| 2026-04-20 19:52 | 40.95523 | -73.11367 | 14976 ft | 431 kts | 39° |
| 2026-04-20 19:53 | 40.97770 | -73.08746 | 14965 ft | 431 kts | 39° |
| 2026-04-20 19:53 | 41.00026 | -73.06110 | 14963 ft | 431 kts | 39° |
| 2026-04-20 19:53 | 41.02277 | -73.03478 | 14967 ft | 431 kts | 39° |
| 2026-04-20 19:53 | 41.04496 | -73.00880 | 14960 ft | 426 kts | 39° |
| 2026-04-20 19:54 | 41.06672 | -72.98332 | 14920 ft | 408 kts | 39° |
| 2026-04-20 19:54 | 41.08780 | -72.95861 | 14531 ft | 401 kts | 39° |
| 2026-04-20 19:54 | 41.10867 | -72.93411 | 14016 ft | 399 kts | 40° |
| 2026-04-20 19:54 | 41.12943 | -72.90974 | 13481 ft | 396 kts | 40° |
| 2026-04-20 19:55 | 41.14996 | -72.88562 | 12972 ft | 392 kts | 40° |
| 2026-04-20 19:55 | 41.17033 | -72.86165 | 12495 ft | 388 kts | 39° |
| 2026-04-20 19:55 | 41.19026 | -72.83818 | 12045 ft | 384 kts | 39° |
| 2026-04-20 19:55 | 41.21000 | -72.81491 | 11836 ft | 373 kts | 39° |
| 2026-04-20 19:56 | 41.22893 | -72.79260 | 11680 ft | 361 kts | 39° |
| 2026-04-20 19:56 | 41.24750 | -72.77068 | 11502 ft | 351 kts | 39° |
| 2026-04-20 19:56 | 41.26554 | -72.74937 | 11340 ft | 341 kts | 39° |
| 2026-04-20 19:56 | 41.28312 | -72.72857 | 11191 ft | 334 kts | 39° |
| 2026-04-20 19:57 | 41.30024 | -72.70834 | 11074 ft | 324 kts | 39° |
| 2026-04-20 19:57 | 41.31856 | -72.69217 | 10870 ft | 310 kts | 16° |
| 2026-04-20 19:57 | 41.33872 | -72.68556 | 10653 ft | 299 kts | 7° |
| 2026-04-20 19:57 | 41.35886 | -72.67983 | 10465 ft | 292 kts | 7° |
| 2026-04-20 19:58 | 41.37854 | -72.67428 | 10283 ft | 285 kts | 6° |
| 2026-04-20 19:58 | 41.39783 | -72.66887 | 10105 ft | 282 kts | 7° |
| 2026-04-20 19:58 | 41.41691 | -72.66354 | 9915 ft | 282 kts | 7° |
| 2026-04-20 19:58 | 41.43611 | -72.65817 | 9719 ft | 280 kts | 7° |
| 2026-04-20 19:59 | 41.45522 | -72.65284 | 9549 ft | 279 kts | 7° |
| 2026-04-20 19:59 | 41.47425 | -72.64752 | 9370 ft | 278 kts | 7° |
| 2026-04-20 19:59 | 41.49295 | -72.64230 | 9181 ft | 277 kts | 7° |
| 2026-04-20 19:59 | 41.51177 | -72.63704 | 8992 ft | 275 kts | 7° |
| 2026-04-20 20:00 | 41.53051 | -72.63180 | 8837 ft | 274 kts | 7° |
| 2026-04-20 20:00 | 41.54918 | -72.62657 | 8658 ft | 273 kts | 7° |
| 2026-04-20 20:00 | 41.56769 | -72.62139 | 8479 ft | 271 kts | 7° |
| 2026-04-20 20:00 | 41.58617 | -72.61621 | 8316 ft | 270 kts | 7° |
| 2026-04-20 20:01 | 41.60431 | -72.61113 | 8143 ft | 268 kts | 7° |
| 2026-04-20 20:01 | 41.62258 | -72.60600 | 7977 ft | 267 kts | 8° |
| 2026-04-20 20:01 | 41.64074 | -72.60090 | 7813 ft | 266 kts | 8° |
| 2026-04-20 20:01 | 41.65872 | -72.59585 | 7650 ft | 266 kts | 8° |
| 2026-04-20 20:02 | 41.67686 | -72.59075 | 7459 ft | 265 kts | 8° |
| 2026-04-20 20:02 | 41.69488 | -72.58569 | 7296 ft | 263 kts | 8° |
| 2026-04-20 20:02 | 41.71278 | -72.58066 | 7125 ft | 262 kts | 8° |
| 2026-04-20 20:02 | 41.73062 | -72.57563 | 6959 ft | 261 kts | 9° |
| 2026-04-20 20:03 | 41.74810 | -72.57072 | 6789 ft | 260 kts | 9° |
| 2026-04-20 20:03 | 41.76576 | -72.56574 | 6638 ft | 258 kts | 9° |
| 2026-04-20 20:03 | 41.78338 | -72.56077 | 6464 ft | 257 kts | 9° |
| 2026-04-20 20:03 | 41.80089 | -72.55583 | 6293 ft | 256 kts | 9° |
| 2026-04-20 20:04 | 41.81830 | -72.55092 | 6130 ft | 255 kts | 9° |
| 2026-04-20 20:04 | 41.83565 | -72.54602 | 5956 ft | 254 kts | 9° |
| 2026-04-20 20:04 | 41.85292 | -72.54114 | 5803 ft | 253 kts | 9° |
| 2026-04-20 20:04 | 41.86955 | -72.53423 | 5627 ft | 254 kts | 27° |
| 2026-04-20 20:05 | 41.88385 | -72.52050 | 5470 ft | 249 kts | 36° |
| 2026-04-20 20:05 | 41.89718 | -72.50595 | 5311 ft | 242 kts | 36° |
| 2026-04-20 20:05 | 41.91008 | -72.49166 | 5124 ft | 240 kts | 37° |
| 2026-04-20 20:05 | 41.92294 | -72.47745 | 4918 ft | 243 kts | 37° |
| 2026-04-20 20:06 | 41.93602 | -72.46307 | 4701 ft | 243 kts | 36° |
| 2026-04-20 20:06 | 41.94903 | -72.44861 | 4552 ft | 241 kts | 37° |
| 2026-04-20 20:06 | 41.96203 | -72.43430 | 4518 ft | 241 kts | 36° |
| 2026-04-20 20:06 | 41.97493 | -72.41997 | 4431 ft | 241 kts | 36° |
| 2026-04-20 20:07 | 41.98835 | -72.40673 | 4339 ft | 237 kts | 22° |
| 2026-04-20 20:07 | 42.00394 | -72.40284 | 4272 ft | 229 kts | 351° |
| 2026-04-20 20:07 | 42.01892 | -72.40958 | 4242 ft | 228 kts | 332° |
| 2026-04-20 20:07 | 42.03297 | -72.41955 | 4181 ft | 224 kts | 330° |
| 2026-04-20 20:08 | 42.04638 | -72.42928 | 4181 ft | 219 kts | 330° |
| 2026-04-20 20:08 | 42.05822 | -72.44147 | 4114 ft | 211 kts | 309° |
| 2026-04-20 20:08 | 42.06544 | -72.45823 | 3970 ft | 204 kts | 291° |
| 2026-04-20 20:08 | 42.06971 | -72.47627 | 3816 ft | 201 kts | 288° |
| 2026-04-20 20:09 | 42.07287 | -72.49450 | 3624 ft | 201 kts | 270° |
| 2026-04-20 20:09 | 42.06879 | -72.51243 | 3352 ft | 204 kts | 240° |
| 2026-04-20 20:09 | 42.05992 | -72.52712 | 3102 ft | 204 kts | 231° |
| 2026-04-20 20:09 | 42.05010 | -72.54096 | 2855 ft | 201 kts | 228° |
| 2026-04-20 20:10 | 42.04031 | -72.55399 | 2676 ft | 192 kts | 228° |
| 2026-04-20 20:10 | 42.03102 | -72.56621 | 2612 ft | 183 kts | 228° |
| 2026-04-20 20:10 | 42.02206 | -72.57806 | 2644 ft | 183 kts | 228° |
| 2026-04-20 20:10 | 42.01307 | -72.58989 | 2485 ft | 176 kts | 228° |
| 2026-04-20 20:11 | 42.00464 | -72.60094 | 2161 ft | 165 kts | 229° |
| 2026-04-20 20:11 | 41.99644 | -72.61161 | 1923 ft | 165 kts | 227° |
| 2026-04-20 20:11 | 41.98817 | -72.62231 | 1490 ft | 165 kts | 230° |
| 2026-04-20 20:11 | 41.98010 | -72.63314 | 1057 ft | 164 kts | 229° |
| 2026-04-20 20:12 | 41.97215 | -72.64403 | 869 ft | 158 kts | 231° |
| 2026-04-20 20:12 | 41.96451 | -72.65373 | 652 ft | 148 kts | 229° |
| 2026-04-20 20:12 | 41.95733 | -72.66313 | 395 ft | 143 kts | 231° |
| 2026-04-20 20:13 | 41.94314 | -72.68215 | 218 ft | 130 kts | 226° |
| 2026-04-20 20:13 | 41.93766 | -72.68928 | 215 ft | 82 kts | 225° |
| 2026-04-20 20:13 | 41.93429 | -72.69369 | 219 ft | 52 kts | 225° |
| 2026-04-20 20:13 | 41.93234 | -72.69594 | 219 ft | 16 kts | 191° |
| 2026-04-20 20:14 | 41.93148 | -72.69487 | 209 ft | 19 kts | 89° |
| 2026-04-20 20:14 | 41.93228 | -72.69349 | 211 ft | 20 kts | 44° |
| 2026-04-20 20:14 | 41.93329 | -72.69218 | 213 ft | 15 kts | 45° |
| 2026-04-20 20:14 | 41.93411 | -72.69109 | 216 ft | 18 kts | 44° |
| 2026-04-20 20:15 | 41.93503 | -72.68990 | 212 ft | 18 kts | 44° |
| 2026-04-20 20:15 | 41.93588 | -72.68879 | 218 ft | 16 kts | 44° |
| 2026-04-20 20:15 | 41.93655 | -72.68787 | 212 ft | 12 kts | 56° |
| 2026-04-20 20:15 | 41.93626 | -72.68687 | 208 ft | 14 kts | 135° |
| 2026-04-20 20:16 | 41.93550 | -72.68584 | 210 ft | 17 kts | 135° |
| 2026-04-20 20:16 | 41.93471 | -72.68477 | 208 ft | 17 kts | 135° |
| 2026-04-20 20:16 | 41.93394 | -72.68373 | 213 ft | 15 kts | 134° |
| 2026-04-20 20:16 | 41.93324 | -72.68277 | 212 ft | 15 kts | 135° |
| 2026-04-20 20:17 | 41.93254 | -72.68183 | 212 ft | 12 kts | 135° |
| 2026-04-20 20:17 | 41.93188 | -72.68161 | 208 ft | 11 kts | 211° |
| 2026-04-20 20:17 | 41.93139 | -72.68224 | 207 ft | 9 kts | 224° |
| 2026-04-20 20:17 | 41.93099 | -72.68278 | 207 ft | 7 kts | 225° |
| 2026-04-20 20:18 | 41.93068 | -72.68322 | 215 ft | 4 kts | 235° |
| 2026-04-20 20:18 | 41.93060 | -72.68356 | 211 ft | 2 kts | 276° |
| 2026-04-20 20:18 | 41.93067 | -72.68372 | 211 ft | 3 kts | 313° |
| 2026-04-20 20:18 | 41.93084 | -72.68395 | 210 ft | 2 kts | 314° |
| 2026-04-20 20:19 | 41.93085 | -72.68397 | 210 ft | 0 kts | 315° |